createdAt,value
2018-10-06T00:00:48.073Z,3.53
2018-10-06T00:03:17.341Z,4.03
2018-10-06T00:05:46.668Z,4.43
2018-10-06T00:08:15.972Z,4.77
2018-10-06T00:10:45.246Z,4.40
2018-10-06T00:13:14.510Z,4.37
2018-10-06T00:15:43.733Z,4.30
2018-10-06T00:18:13.079Z,4.40
2018-10-06T00:20:42.429Z,5.07
2018-10-06T00:23:11.672Z,4.60
2018-10-06T00:25:40.961Z,4.93
2018-10-06T00:28:10.393Z,5.53
2018-10-06T00:30:39.727Z,4.87
2018-10-06T00:33:08.972Z,5.20
2018-10-06T00:35:38.262Z,5.07
2018-10-06T00:38:07.816Z,5.97
2018-10-06T00:40:37.130Z,4.97
2018-10-06T00:43:06.429Z,5.80
2018-10-06T00:45:35.741Z,4.97
2018-10-06T00:48:05.045Z,5.20
2018-10-06T00:50:34.321Z,4.93
2018-10-06T00:53:03.599Z,4.83
2018-10-06T00:55:32.819Z,5.00
2018-10-06T00:58:02.131Z,4.83
2018-10-06T01:00:31.419Z,4.90
2018-10-06T01:03:01.386Z,4.83
2018-10-06T01:05:30.665Z,5.23
2018-10-06T01:08:00.014Z,5.37
2018-10-06T01:10:29.405Z,5.23
2018-10-06T01:12:58.755Z,5.30
2018-10-06T01:15:28.041Z,5.80
2018-10-06T01:17:57.383Z,5.23
2018-10-06T01:20:26.696Z,4.80
2018-10-06T01:22:56.016Z,5.27
2018-10-06T01:25:25.330Z,5.70
2018-10-06T01:27:54.558Z,5.70
2018-10-06T01:30:23.852Z,4.97
2018-10-06T01:32:54.257Z,5.53
2018-10-06T01:35:23.557Z,5.80
2018-10-06T01:37:52.898Z,5.97
2018-10-06T01:40:22.220Z,6.83
2018-10-06T01:42:51.495Z,6.60
2018-10-06T01:45:20.826Z,5.80
2018-10-06T01:47:50.195Z,5.77
2018-10-06T01:50:19.441Z,5.30
2018-10-06T01:52:48.861Z,5.60
2018-10-06T01:55:18.146Z,5.03
2018-10-06T01:57:47.482Z,4.97
2018-10-06T02:00:16.837Z,5.93
2018-10-06T02:02:46.161Z,6.30
2018-10-06T02:05:15.480Z,7.20
2018-10-06T02:07:44.829Z,7.07
2018-10-06T02:10:14.079Z,5.73
2018-10-06T02:12:43.428Z,5.63
2018-10-06T02:15:12.719Z,6.17
2018-10-06T02:17:42.057Z,5.93
2018-10-06T02:20:11.323Z,5.47
2018-10-06T02:22:40.601Z,5.87
2018-10-06T02:25:09.874Z,6.47
2018-10-06T02:27:40.072Z,6.33
2018-10-06T02:30:09.486Z,5.93
2018-10-06T02:32:38.798Z,5.97
2018-10-06T02:35:08.116Z,6.47
2018-10-06T02:37:37.420Z,6.67
2018-10-06T02:40:06.772Z,6.00
2018-10-06T02:42:36.863Z,6.60
2018-10-06T02:45:07.542Z,6.20
2018-10-06T02:47:36.872Z,6.03
2018-10-06T02:50:06.241Z,5.70
2018-10-06T02:52:35.547Z,5.17
2018-10-06T02:55:04.842Z,5.43
2018-10-06T02:57:34.160Z,6.07
2018-10-06T03:00:03.505Z,5.50
2018-10-06T03:02:33.903Z,5.47
2018-10-06T03:05:03.293Z,5.13
2018-10-06T03:07:32.585Z,5.73
2018-10-06T03:10:01.857Z,6.37
2018-10-06T03:12:31.208Z,5.83
2018-10-06T03:15:00.507Z,5.97
2018-10-06T03:17:29.756Z,5.90
2018-10-06T03:19:59.117Z,5.63
2018-10-06T03:22:28.429Z,6.43
2018-10-06T03:24:57.677Z,6.00
2018-10-06T03:27:26.982Z,7.33
2018-10-06T03:29:56.325Z,7.30
2018-10-06T03:32:25.638Z,8.27
2018-10-06T03:34:54.929Z,7.47
2018-10-06T03:37:24.183Z,6.93
2018-10-06T03:39:53.486Z,6.17
2018-10-06T03:42:22.769Z,6.60
2018-10-06T03:44:52.127Z,6.17
2018-10-06T03:47:21.432Z,6.00
2018-10-06T03:49:50.764Z,7.23
2018-10-06T03:52:20.057Z,6.23
2018-10-06T03:54:49.342Z,6.90
2018-10-06T03:57:18.599Z,8.03
2018-10-06T03:59:47.955Z,6.70
2018-10-06T04:02:17.302Z,5.93
2018-10-06T04:04:46.640Z,7.47
2018-10-06T04:07:15.972Z,6.90
2018-10-06T04:09:45.312Z,6.83
2018-10-06T04:12:14.632Z,6.43
2018-10-06T04:14:44.151Z,7.50
2018-10-06T04:17:13.473Z,6.37
2018-10-06T04:19:42.884Z,6.90
2018-10-06T04:22:12.124Z,7.60
2018-10-06T04:24:41.513Z,7.77
2018-10-06T04:27:11.082Z,6.67
2018-10-06T04:29:40.425Z,7.63
2018-10-06T04:32:09.699Z,8.20
2018-10-06T04:34:38.919Z,7.87
2018-10-06T04:37:08.200Z,6.83
2018-10-06T04:39:37.692Z,7.60
2018-10-06T04:42:07.034Z,6.63
2018-10-06T04:44:36.278Z,7.43
2018-10-06T04:47:05.739Z,7.37
2018-10-06T04:49:34.983Z,6.80
2018-10-06T04:52:04.338Z,7.03
2018-10-06T04:54:33.616Z,7.07
2018-10-06T04:57:02.934Z,6.90
2018-10-06T04:59:32.302Z,7.90
2018-10-06T05:02:01.663Z,7.10
2018-10-06T05:04:31.027Z,7.67
2018-10-06T05:07:00.508Z,7.50
2018-10-06T05:09:30.043Z,7.87
2018-10-06T05:11:59.434Z,8.40
2018-10-06T05:14:28.778Z,9.30
2018-10-06T05:16:58.091Z,9.27
2018-10-06T05:19:27.426Z,7.30
2018-10-06T05:21:56.732Z,7.20
2018-10-06T05:24:26.003Z,7.73
2018-10-06T05:26:55.338Z,8.03
2018-10-06T05:29:24.684Z,9.00
2018-10-06T05:31:55.025Z,8.90
2018-10-06T05:34:24.290Z,8.80
2018-10-06T05:36:53.591Z,9.50
2018-10-06T05:39:22.893Z,13.73
2018-10-06T05:41:52.194Z,11.47
2018-10-06T05:44:21.525Z,12.30
2018-10-06T05:46:50.794Z,10.23
2018-10-06T05:49:20.062Z,9.03
2018-10-06T05:51:49.402Z,8.97
2018-10-06T05:54:18.679Z,8.80
2018-10-06T05:56:48.023Z,8.33
2018-10-06T05:59:17.326Z,10.00
2018-10-06T06:01:46.679Z,10.07
2018-10-06T06:04:16.091Z,11.13
2018-10-06T06:06:45.390Z,12.20
2018-10-06T06:09:14.701Z,11.83
2018-10-06T06:11:43.974Z,9.50
2018-10-06T06:14:13.282Z,11.10
2018-10-06T06:16:42.577Z,11.10
2018-10-06T06:19:11.859Z,10.50
2018-10-06T06:21:41.168Z,10.50
2018-10-06T06:24:10.447Z,12.10
2018-10-06T06:26:39.739Z,10.97
2018-10-06T06:29:09.381Z,11.10
2018-10-06T06:31:38.745Z,11.37
2018-10-06T06:34:08.019Z,11.70
2018-10-06T06:36:37.365Z,13.27
2018-10-06T06:39:08.119Z,12.93
2018-10-06T06:41:37.538Z,13.33
2018-10-06T06:44:07.202Z,10.50
2018-10-06T06:46:36.428Z,10.50
2018-10-06T06:49:06.046Z,10.43
2018-10-06T06:51:36.475Z,11.07
2018-10-06T06:54:05.761Z,12.63
2018-10-06T06:56:35.104Z,11.70
2018-10-06T06:59:04.549Z,12.53
2018-10-06T07:01:33.823Z,12.00
2018-10-06T07:04:03.134Z,11.47
2018-10-06T07:06:32.518Z,13.13
2018-10-06T07:09:01.815Z,14.17
2018-10-06T07:11:31.226Z,13.70
2018-10-06T07:14:00.505Z,12.87
2018-10-06T07:16:29.857Z,13.00
2018-10-06T07:18:59.187Z,11.97
2018-10-06T07:21:28.502Z,13.70
2018-10-06T07:23:57.824Z,13.03
2018-10-06T07:26:27.163Z,11.70
2018-10-06T07:28:56.548Z,12.50
2018-10-06T07:31:26.112Z,13.43
2018-10-06T07:33:55.452Z,13.47
2018-10-06T07:36:24.732Z,12.10
2018-10-06T07:38:54.108Z,12.27
2018-10-06T07:41:23.477Z,12.97
2018-10-06T07:43:52.790Z,13.07
2018-10-06T07:46:22.124Z,11.60
2018-10-06T07:48:51.689Z,10.80
2018-10-06T07:51:21.038Z,10.57
2018-10-06T07:53:50.337Z,10.70
2018-10-06T07:56:19.696Z,10.07
2018-10-06T07:58:49.007Z,10.60
2018-10-06T08:01:18.337Z,10.13
2018-10-06T08:03:47.864Z,9.97
2018-10-06T08:06:17.175Z,9.33
2018-10-06T08:08:46.543Z,9.57
2018-10-06T08:11:15.957Z,9.20
2018-10-06T08:13:45.279Z,8.60
2018-10-06T08:16:14.551Z,8.57
2018-10-06T08:18:43.847Z,8.27
2018-10-06T08:21:13.378Z,9.40
2018-10-06T08:23:42.667Z,9.13
2018-10-06T08:26:12.015Z,8.43
2018-10-06T08:28:41.333Z,8.53
2018-10-06T08:31:10.666Z,8.30
2018-10-06T08:33:40.019Z,8.07
2018-10-06T08:36:09.833Z,9.40
2018-10-06T08:38:39.210Z,8.67
2018-10-06T08:41:08.488Z,8.33
2018-10-06T08:43:37.808Z,8.10
2018-10-06T08:46:07.408Z,7.13
2018-10-06T08:48:36.698Z,8.00
2018-10-06T08:51:06.095Z,8.00
2018-10-06T08:53:35.501Z,6.80
2018-10-06T08:56:05.024Z,6.67
2018-10-06T08:58:36.368Z,6.27
2018-10-06T09:01:05.753Z,6.70
2018-10-06T09:03:35.424Z,6.63
2018-10-06T09:06:04.750Z,6.40
2018-10-06T09:08:34.118Z,5.70
2018-10-06T09:11:03.459Z,5.73
2018-10-06T09:13:32.761Z,5.50
2018-10-06T09:16:02.592Z,5.03
2018-10-06T09:18:31.933Z,5.30
2018-10-06T09:21:01.636Z,4.80
2018-10-06T09:23:31.113Z,6.33
2018-10-06T09:26:01.505Z,4.43
2018-10-06T09:28:33.162Z,3.93
2018-10-06T09:31:02.485Z,3.57
2018-10-06T09:33:32.374Z,3.50
2018-10-06T09:36:01.713Z,2.83
2018-10-06T09:38:32.112Z,4.30
2018-10-06T09:41:01.535Z,3.30
2018-10-06T09:43:31.340Z,3.40
2018-10-06T09:46:01.160Z,3.00
2018-10-06T09:48:31.516Z,2.97
2018-10-06T09:51:00.838Z,4.53
2018-10-06T09:53:30.448Z,2.87
2018-10-06T09:55:59.960Z,3.00
2018-10-06T09:58:29.314Z,2.60
2018-10-06T10:01:03.781Z,5.13
2018-10-06T10:03:38.125Z,2.30
2018-10-06T10:06:07.734Z,2.63
2018-10-06T10:08:37.994Z,2.77
2018-10-06T10:11:07.826Z,2.97
2018-10-06T10:13:37.175Z,2.40
2018-10-06T10:16:07.677Z,2.40
2018-10-06T10:18:37.562Z,2.50
2018-10-06T10:21:06.908Z,2.30
2018-10-06T10:23:36.302Z,2.40
2018-10-06T10:26:06.263Z,2.70
2018-10-06T10:28:35.602Z,2.43
2018-10-06T10:31:05.652Z,2.63
2018-10-06T10:33:35.160Z,2.60
2018-10-06T10:36:04.512Z,2.70
2018-10-06T10:38:34.106Z,3.23
2018-10-06T10:41:03.938Z,3.13
2018-10-06T10:43:33.296Z,2.97
2018-10-06T10:46:02.662Z,3.10
2018-10-06T10:48:31.948Z,3.10
2018-10-06T10:51:01.799Z,3.50
2018-10-06T10:53:31.543Z,3.10
2018-10-06T10:56:01.034Z,3.37
2018-10-06T10:58:30.525Z,4.07
2018-10-06T11:00:59.921Z,3.50
2018-10-06T11:03:29.949Z,4.10
2018-10-06T11:05:59.307Z,3.93
2018-10-06T11:08:28.966Z,3.97
2018-10-06T11:10:58.349Z,3.83
2018-10-06T11:13:27.651Z,3.03
2018-10-06T11:15:56.966Z,4.10
2018-10-06T11:18:26.323Z,3.97
2018-10-06T11:20:55.676Z,3.87
2018-10-06T11:23:25.022Z,4.00
2018-10-06T11:25:54.335Z,3.63
2018-10-06T11:28:24.053Z,3.60
2018-10-06T11:30:53.947Z,3.60
2018-10-06T11:33:23.770Z,3.70
2018-10-06T11:35:53.063Z,3.40
2018-10-06T11:38:22.443Z,2.97
2018-10-06T11:40:52.438Z,3.30
2018-10-06T11:43:21.736Z,3.13
2018-10-06T11:45:51.099Z,2.70
2018-10-06T11:48:20.367Z,2.50
2018-10-06T11:50:55.596Z,3.10
2018-10-06T11:53:24.837Z,3.30
2018-10-06T11:55:54.760Z,3.40
2018-10-06T11:58:24.591Z,3.67
2018-10-06T12:00:54.070Z,3.47
2018-10-06T12:03:23.324Z,3.27
2018-10-06T12:05:52.637Z,3.20
2018-10-06T12:08:23.044Z,4.43
2018-10-06T12:10:53.190Z,3.13
2018-10-06T12:13:22.721Z,3.30
2018-10-06T12:15:52.069Z,2.90
2018-10-06T12:18:22.382Z,3.27
2018-10-06T12:20:51.680Z,2.57
2018-10-06T12:23:20.968Z,2.90
2018-10-06T12:25:50.918Z,2.33
2018-10-06T12:28:20.713Z,2.70
2018-10-06T12:30:50.025Z,2.67
2018-10-06T12:33:19.319Z,2.47
2018-10-06T12:35:49.074Z,2.37
2018-10-06T12:38:18.829Z,2.90
2018-10-06T12:40:48.077Z,2.70
2018-10-06T12:43:17.824Z,2.03
2018-10-06T12:45:47.805Z,2.37
2018-10-06T12:48:17.108Z,2.50
2018-10-06T12:50:46.449Z,2.80
2018-10-06T12:53:17.354Z,2.17
2018-10-06T12:55:46.617Z,2.20
2018-10-06T12:58:16.523Z,2.30
2018-10-06T13:00:45.877Z,2.30
2018-10-06T13:03:15.144Z,2.20
2018-10-06T13:05:44.444Z,2.50
2018-10-06T13:08:13.801Z,2.17
2018-10-06T13:10:43.071Z,2.37
2018-10-06T13:13:12.381Z,2.40
2018-10-06T13:15:41.674Z,2.80
2018-10-06T13:18:10.963Z,2.37
2018-10-06T13:20:40.248Z,2.23
2018-10-06T13:23:09.826Z,2.37
2018-10-06T13:25:39.279Z,2.90
2018-10-06T13:28:08.936Z,2.20
2018-10-06T13:30:38.755Z,2.10
2018-10-06T13:33:08.383Z,2.30
2018-10-06T13:35:37.657Z,1.90
2018-10-06T13:38:07.074Z,2.50
2018-10-06T13:40:36.751Z,2.00
2018-10-06T13:43:06.093Z,1.93
2018-10-06T13:45:35.337Z,2.30
2018-10-06T13:48:05.432Z,2.20
2018-10-06T13:50:34.852Z,1.93
2018-10-06T13:53:04.724Z,2.00
2018-10-06T13:55:33.994Z,2.10
2018-10-06T13:58:03.299Z,2.30
2018-10-06T14:00:34.104Z,3.60
2018-10-06T14:03:03.489Z,2.10
2018-10-06T14:05:33.226Z,2.00
2018-10-06T14:08:02.548Z,2.00
2018-10-06T14:10:32.378Z,1.80
2018-10-06T14:13:01.693Z,2.30
2018-10-06T14:15:31.012Z,1.97
2018-10-06T14:18:00.697Z,1.63
2018-10-06T14:20:29.986Z,1.80
2018-10-06T14:22:59.345Z,1.50
2018-10-06T14:25:28.734Z,1.90
2018-10-06T14:27:58.010Z,1.70
2018-10-06T14:30:27.314Z,1.90
2018-10-06T14:32:56.663Z,2.20
2018-10-06T14:35:25.945Z,1.80
2018-10-06T14:37:55.462Z,1.90
2018-10-06T14:40:24.819Z,1.80
2018-10-06T14:42:54.161Z,2.00
2018-10-06T14:45:23.466Z,1.80
2018-10-06T14:47:52.769Z,2.03
2018-10-06T14:50:22.736Z,1.57
2018-10-06T14:52:52.539Z,1.90
2018-10-06T14:55:22.238Z,1.80
2018-10-06T14:57:51.562Z,2.07
2018-10-06T15:00:20.943Z,2.10
2018-10-06T15:02:50.201Z,1.80
2018-10-06T15:05:19.976Z,2.00
2018-10-06T15:07:49.289Z,1.73
2018-10-06T15:10:19.079Z,1.67
2018-10-06T15:12:48.437Z,1.80
2018-10-06T15:15:18.552Z,1.70
2018-10-06T15:17:47.926Z,1.90
2018-10-06T15:20:17.869Z,1.73
2018-10-06T15:22:47.120Z,2.10
2018-10-06T15:25:16.413Z,1.90
2018-10-06T15:27:45.724Z,1.70
2018-10-06T15:30:15.025Z,1.87
2018-10-06T15:32:44.278Z,1.77
2018-10-06T15:35:13.942Z,1.93
2018-10-06T15:37:43.326Z,1.97
2018-10-06T15:40:12.566Z,1.90
2018-10-06T15:42:42.298Z,1.80
2018-10-06T15:45:12.056Z,1.90
2018-10-06T15:47:50.268Z,1.50
2018-10-06T15:50:19.606Z,1.80
2018-10-06T15:52:48.947Z,1.90
2018-10-06T15:55:18.256Z,2.30
2018-10-06T15:57:48.380Z,2.03
2018-10-06T16:00:17.794Z,2.00
2018-10-06T16:02:48.047Z,1.90
2018-10-06T16:05:17.463Z,2.40
2018-10-06T16:07:46.801Z,2.20
2018-10-06T16:10:16.202Z,1.90
2018-10-06T16:12:45.573Z,2.30
2018-10-06T16:15:15.070Z,2.70
2018-10-06T16:17:44.524Z,3.00
2018-10-06T16:20:13.870Z,3.20
2018-10-06T16:22:43.204Z,3.80
2018-10-06T16:25:12.516Z,3.40
2018-10-06T16:27:41.807Z,3.50
2018-10-06T16:30:11.224Z,3.60
2018-10-06T16:32:42.792Z,4.23
2018-10-06T16:35:12.129Z,3.37
2018-10-06T16:37:41.446Z,4.40
2018-10-06T16:40:10.792Z,15.13
2018-10-06T16:42:40.318Z,12.70
2018-10-06T16:45:12.117Z,11.40
2018-10-06T16:47:41.328Z,9.67
2018-10-06T16:50:10.805Z,8.53
2018-10-06T16:52:40.273Z,9.20
2018-10-06T16:55:09.926Z,9.50
2018-10-06T16:57:39.323Z,6.90
2018-10-06T17:00:08.645Z,4.80
2018-10-06T17:02:37.938Z,4.20
2018-10-06T17:05:07.749Z,8.00
2018-10-06T17:07:37.204Z,9.23
2018-10-06T17:10:07.092Z,9.50
2018-10-06T17:12:37.063Z,6.80
2018-10-06T17:15:07.504Z,7.57
2018-10-06T17:17:37.226Z,7.60
2018-10-06T17:20:06.729Z,7.77
2018-10-06T17:22:37.069Z,8.43
2018-10-06T17:25:06.418Z,9.00
2018-10-06T17:27:35.965Z,9.30
2018-10-06T17:30:05.517Z,9.43
2018-10-06T17:32:35.094Z,8.23
2018-10-06T17:35:04.538Z,8.90
2018-10-06T17:37:33.891Z,7.90
2018-10-06T17:40:03.177Z,5.70
2018-10-06T17:42:33.591Z,6.13
2018-10-06T17:45:03.044Z,6.33
2018-10-06T17:47:32.806Z,6.43
2018-10-06T17:50:02.304Z,6.07
2018-10-06T17:52:31.463Z,6.87
2018-10-06T17:55:00.873Z,6.70
2018-10-06T17:57:30.156Z,6.10
2018-10-06T17:59:59.545Z,5.83
2018-10-06T18:02:28.895Z,6.00
2018-10-06T18:04:58.287Z,5.67
2018-10-06T18:07:27.593Z,5.87
2018-10-06T18:09:57.280Z,5.97
2018-10-06T18:12:26.852Z,5.87
2018-10-06T18:14:56.101Z,6.00
2018-10-06T18:17:25.710Z,6.00
2018-10-06T18:19:55.927Z,6.13
2018-10-06T18:22:25.315Z,5.70
2018-10-06T18:24:54.578Z,5.97
2018-10-06T18:27:23.883Z,5.80
2018-10-06T18:29:53.275Z,6.23
2018-10-06T18:32:22.610Z,6.20
2018-10-06T18:34:52.502Z,5.10
2018-10-06T18:37:21.964Z,5.27
2018-10-06T18:39:51.247Z,4.97
2018-10-06T18:42:20.960Z,5.50
2018-10-06T18:44:50.630Z,5.83
2018-10-06T18:47:20.326Z,6.00
2018-10-06T18:49:49.673Z,7.27
2018-10-06T18:52:19.152Z,6.17
2018-10-06T18:54:48.493Z,5.53
2018-10-06T18:57:17.805Z,5.93
2018-10-06T18:59:52.248Z,5.33
2018-10-06T19:02:21.689Z,5.50
2018-10-06T19:04:51.062Z,6.30
2018-10-06T19:07:20.415Z,5.97
2018-10-06T19:09:52.093Z,7.43
2018-10-06T19:12:21.516Z,9.13
2018-10-06T19:14:50.894Z,9.67
2018-10-06T19:17:20.470Z,9.70
2018-10-06T19:19:49.951Z,8.77
2018-10-06T19:22:19.494Z,12.70
2018-10-06T19:24:49.188Z,14.07
2018-10-06T19:27:18.828Z,16.37
2018-10-06T19:29:48.332Z,13.77
2018-10-06T19:32:17.884Z,14.80
2018-10-06T19:34:47.209Z,16.07
2018-10-06T19:37:16.762Z,16.53
2018-10-06T19:39:53.712Z,17.20
2018-10-06T19:42:23.164Z,16.43
2018-10-06T19:44:52.645Z,19.43
2018-10-06T19:47:22.169Z,12.30
2018-10-06T19:49:51.489Z,9.57
2018-10-06T19:52:20.953Z,10.20
2018-10-06T19:54:50.493Z,12.63
2018-10-06T19:57:19.821Z,12.00
2018-10-06T19:59:49.752Z,13.03
2018-10-06T20:02:19.127Z,11.73
2018-10-06T20:04:48.481Z,11.23
2018-10-06T20:07:17.887Z,10.67
2018-10-06T20:09:47.344Z,10.20
2018-10-06T20:12:16.783Z,9.57
2018-10-06T20:14:46.081Z,9.23
2018-10-06T20:17:15.430Z,9.10
2018-10-06T20:19:45.187Z,8.73
2018-10-06T20:22:14.590Z,8.47
2018-10-06T20:24:44.305Z,7.83
2018-10-06T20:27:13.632Z,6.90
2018-10-06T20:29:43.105Z,8.07
2018-10-06T20:32:12.478Z,6.83
2018-10-06T20:34:42.331Z,6.47
2018-10-06T20:37:14.125Z,7.07
2018-10-06T20:39:43.524Z,7.10
2018-10-06T20:42:17.672Z,6.83
2018-10-06T20:44:47.167Z,7.77
2018-10-06T20:47:16.498Z,7.30
2018-10-06T20:49:45.873Z,7.87
2018-10-06T20:52:15.237Z,7.80
2018-10-06T20:54:45.681Z,7.77
2018-10-06T20:57:14.976Z,7.70
2018-10-06T20:59:44.432Z,8.63
2018-10-06T21:02:14.078Z,8.80
2018-10-06T21:04:43.593Z,7.47
2018-10-06T21:07:12.955Z,6.97
2018-10-06T21:09:42.271Z,6.80
2018-10-06T21:12:11.926Z,8.30
2018-10-06T21:14:41.321Z,9.80
2018-10-06T21:17:10.752Z,8.57
2018-10-06T21:19:40.228Z,8.13
2018-10-06T21:22:09.605Z,7.43
2018-10-06T21:24:41.986Z,8.47
2018-10-06T21:27:11.327Z,9.97
2018-10-06T21:29:41.165Z,9.60
2018-10-06T21:32:10.807Z,10.47
2018-10-06T21:34:40.502Z,11.80
2018-10-06T21:37:09.894Z,9.93
2018-10-06T21:39:39.349Z,8.83
2018-10-06T21:42:08.701Z,10.00
2018-10-06T21:44:38.605Z,11.80
2018-10-06T21:47:08.271Z,11.80
2018-10-06T21:49:37.583Z,12.30
2018-10-06T21:52:06.892Z,13.40
2018-10-06T21:54:36.649Z,10.50
2018-10-06T21:57:06.012Z,10.80
2018-10-06T21:59:35.437Z,11.30
2018-10-06T22:02:04.956Z,13.40
2018-10-06T22:04:34.507Z,15.67
2018-10-06T22:07:04.242Z,16.40
2018-10-06T22:09:33.783Z,13.97
2018-10-06T22:12:03.269Z,20.73
2018-10-06T22:14:32.573Z,23.03
2018-10-06T22:17:03.296Z,23.47
2018-10-06T22:19:32.609Z,22.50
2018-10-06T22:22:02.189Z,23.90
2018-10-06T22:24:32.091Z,25.03
2018-10-06T22:27:01.932Z,26.30
2018-10-06T22:29:31.432Z,27.67
2018-10-06T22:32:00.758Z,28.47
2018-10-06T22:34:30.099Z,28.13
2018-10-06T22:36:59.499Z,30.70
2018-10-06T22:39:28.884Z,33.37
2018-10-06T22:41:58.473Z,34.43
2018-10-06T22:44:27.898Z,33.93
2018-10-06T22:46:57.473Z,34.80
2018-10-06T22:49:26.861Z,35.03
2018-10-06T22:51:56.178Z,43.43
2018-10-06T22:54:25.542Z,47.13
2018-10-06T22:56:55.029Z,47.17
2018-10-06T22:59:24.485Z,47.37
2018-10-06T23:01:53.854Z,49.57
2018-10-06T23:04:23.194Z,50.83
2018-10-06T23:06:52.588Z,51.77
2018-10-06T23:09:21.938Z,50.90
2018-10-06T23:11:51.254Z,52.53
2018-10-06T23:14:20.672Z,52.77
2018-10-06T23:16:50.015Z,55.00
2018-10-06T23:19:19.351Z,55.20
2018-10-06T23:21:48.755Z,53.93
2018-10-06T23:24:18.054Z,52.57
2018-10-06T23:26:48.419Z,51.67
2018-10-06T23:29:17.749Z,51.97
2018-10-06T23:31:47.081Z,50.80
2018-10-06T23:34:16.786Z,51.23
2018-10-06T23:36:46.546Z,52.07
2018-10-06T23:39:15.913Z,51.17
2018-10-06T23:41:45.687Z,50.87
2018-10-06T23:44:15.033Z,50.70
2018-10-06T23:46:44.319Z,50.00
2018-10-06T23:49:13.928Z,51.63
2018-10-06T23:51:43.241Z,50.37
2018-10-06T23:54:12.770Z,49.83
2018-10-06T23:56:42.115Z,49.87
2018-10-06T23:59:11.866Z,50.50
